Etusivu
METAR-TAF:

METAR-TAF

Lentoasemat :

Cuneo, Italia

Leveyspiiri: 44-32-47N, Pituuspiiri: 007-37-20E, korkeus merenpinnasta: 386 m

Tämänhetkinen sää

Tämä raportti tehtiin 21 minuuttia sitten, kello 18.50 UTC
Tuuli 3 kn etelästä
Lämpötila 16°C
Kosteus 72%
Ilmanpaine 1011 hPa
Näkyvyys 10 km tai enemmän
ei pilviä alle 1500 m:ssä eikä cumulonimbus-pilviä

METAR: LIMZ 261850Z 17003KT CAVOK 16/11 Q1011

Aika: 21:11 (19:11 UTC)

Sääennuste

Tämä raportti tehtiin 2 tuntia ja 11 minuuttia sitten, kello 17.00 UTC
Ennuste voimassa 26. päivästä klo 18 UTC - 27. päivään klo 18 UTC
Tuuli 6 kn koillisesta
Näkyvyys 10 km tai enemmän
Hajanaisia pilviä 6000 ft:n korkeudessa

TAF: LIMZ 261700Z 2618/2718 04006KT 9999 SCT060

Säähavainnot ja -ennusteet yli 4000 lentoasemalta (METAR- ja TAF-raportit).

Käytössä olevat sääasemat on merkitty karttaan keltaisilla ja punaisilla pisteillä.

Aseta hiiri pisteen päälle nähdäksesi sääaseman nimen.

Klikkaa sitten nähdäksesi säähavainnot ja -ennusteet.

Kartan vaihtaminen: klikkaa mustalla rastilla varustettuja vihreitä pisteitä, niin voit zoomata sisään; viivalla varustettua vihreää pistettä, niin voit zoomata ulos tai vihreitä nuolia, niin pääset viereisille kartoille.


METAR-TAF: